sensor_id;sensor_type;location;lat;lon;timestamp;temperature;humidity
18412;DHT22;27097;51.738;19.472;2023-08-07T00:01:47;22.60;68.50
18412;DHT22;27097;51.738;19.472;2023-08-07T00:04:14;22.70;68.60
18412;DHT22;27097;51.738;19.472;2023-08-07T00:06:41;22.70;68.30
18412;DHT22;27097;51.738;19.472;2023-08-07T00:09:08;22.70;68.90
18412;DHT22;27097;51.738;19.472;2023-08-07T00:11:35;22.80;68.90
18412;DHT22;27097;51.738;19.472;2023-08-07T00:14:01;22.80;68.50
18412;DHT22;27097;51.738;19.472;2023-08-07T00:16:28;22.90;68.70
18412;DHT22;27097;51.738;19.472;2023-08-07T00:18:56;22.90;69.70
18412;DHT22;27097;51.738;19.472;2023-08-07T00:21:23;23.00;69.00
18412;DHT22;27097;51.738;19.472;2023-08-07T00:23:50;23.00;69.30
18412;DHT22;27097;51.738;19.472;2023-08-07T00:26:17;23.00;68.80
18412;DHT22;27097;51.738;19.472;2023-08-07T00:28:44;23.10;69.40
18412;DHT22;27097;51.738;19.472;2023-08-07T00:31:11;23.10;69.20
18412;DHT22;27097;51.738;19.472;2023-08-07T00:33:38;23.10;68.50
18412;DHT22;27097;51.738;19.472;2023-08-07T00:36:06;23.20;69.50
18412;DHT22;27097;51.738;19.472;2023-08-07T00:38:33;23.20;69.10
18412;DHT22;27097;51.738;19.472;2023-08-07T00:40:59;23.20;69.00
18412;DHT22;27097;51.738;19.472;2023-08-07T00:43:26;23.30;69.10
18412;DHT22;27097;51.738;19.472;2023-08-07T00:45:53;23.30;68.80
18412;DHT22;27097;51.738;19.472;2023-08-07T00:48:21;23.30;68.70
18412;DHT22;27097;51.738;19.472;2023-08-07T00:50:48;23.30;68.80
18412;DHT22;27097;51.738;19.472;2023-08-07T00:53:17;23.30;68.50
18412;DHT22;27097;51.738;19.472;2023-08-07T00:55:44;23.30;69.00
18412;DHT22;27097;51.738;19.472;2023-08-07T00:58:12;23.40;69.40
18412;DHT22;27097;51.738;19.472;2023-08-07T01:00:38;23.40;69.20
18412;DHT22;27097;51.738;19.472;2023-08-07T01:03:07;23.40;69.30
18412;DHT22;27097;51.738;19.472;2023-08-07T01:05:34;23.40;69.00
18412;DHT22;27097;51.738;19.472;2023-08-07T01:08:01;23.40;69.10
18412;DHT22;27097;51.738;19.472;2023-08-07T01:10:38;23.40;70.00
18412;DHT22;27097;51.738;19.472;2023-08-07T01:13:14;23.40;69.00
18412;DHT22;27097;51.738;19.472;2023-08-07T01:15:43;23.40;69.10
18412;DHT22;27097;51.738;19.472;2023-08-07T01:18:11;23.40;69.00
18412;DHT22;27097;51.738;19.472;2023-08-07T01:20:38;23.40;69.20
18412;DHT22;27097;51.738;19.472;2023-08-07T01:23:06;23.40;68.80
18412;DHT22;27097;51.738;19.472;2023-08-07T01:25:33;23.40;68.60
18412;DHT22;27097;51.738;19.472;2023-08-07T01:28:10;23.40;68.90
18412;DHT22;27097;51.738;19.472;2023-08-07T01:30:42;23.40;68.90
18412;DHT22;27097;51.738;19.472;2023-08-07T01:33:14;23.40;68.90
18412;DHT22;27097;51.738;19.472;2023-08-07T01:35:44;23.40;68.50
18412;DHT22;27097;51.738;19.472;2023-08-07T01:38:14;23.40;68.80
18412;DHT22;27097;51.738;19.472;2023-08-07T01:40:42;23.40;68.70
18412;DHT22;27097;51.738;19.472;2023-08-07T01:43:09;23.40;68.50
18412;DHT22;27097;51.738;19.472;2023-08-07T01:45:36;23.40;69.00
18412;DHT22;27097;51.738;19.472;2023-08-07T01:48:03;23.40;69.20
18412;DHT22;27097;51.738;19.472;2023-08-07T01:50:30;23.40;69.90
18412;DHT22;27097;51.738;19.472;2023-08-07T01:52:57;23.40;69.60
18412;DHT22;27097;51.738;19.472;2023-08-07T01:55:27;23.50;70.00
18412;DHT22;27097;51.738;19.472;2023-08-07T01:57:54;23.50;69.50
18412;DHT22;27097;51.738;19.472;2023-08-07T02:00:21;23.50;69.90
18412;DHT22;27097;51.738;19.472;2023-08-07T02:02:48;23.50;69.80
18412;DHT22;27097;51.738;19.472;2023-08-07T02:05:15;23.50;69.60
18412;DHT22;27097;51.738;19.472;2023-08-07T02:07:42;23.50;69.60
18412;DHT22;27097;51.738;19.472;2023-08-07T02:10:09;23.40;69.30
18412;DHT22;27097;51.738;19.472;2023-08-07T02:12:37;23.50;69.60
18412;DHT22;27097;51.738;19.472;2023-08-07T02:15:05;23.50;69.50
18412;DHT22;27097;51.738;19.472;2023-08-07T02:17:32;23.50;69.30
18412;DHT22;27097;51.738;19.472;2023-08-07T02:19:59;23.50;68.90
18412;DHT22;27097;51.738;19.472;2023-08-07T02:22:26;23.50;69.00
18412;DHT22;27097;51.738;19.472;2023-08-07T02:24:52;23.50;69.10
18412;DHT22;27097;51.738;19.472;2023-08-07T02:27:19;23.50;69.60
18412;DHT22;27097;51.738;19.472;2023-08-07T02:29:47;23.50;69.50
18412;DHT22;27097;51.738;19.472;2023-08-07T02:32:16;23.50;69.30
18412;DHT22;27097;51.738;19.472;2023-08-07T02:34:45;23.50;69.00
18412;DHT22;27097;51.738;19.472;2023-08-07T02:37:11;23.50;69.20
18412;DHT22;27097;51.738;19.472;2023-08-07T02:39:38;23.50;69.10
18412;DHT22;27097;51.738;19.472;2023-08-07T02:42:06;23.50;69.10
18412;DHT22;27097;51.738;19.472;2023-08-07T02:44:32;23.50;69.00
18412;DHT22;27097;51.738;19.472;2023-08-07T02:47:01;23.50;69.20
18412;DHT22;27097;51.738;19.472;2023-08-07T02:49:27;23.50;69.00
18412;DHT22;27097;51.738;19.472;2023-08-07T02:51:54;23.50;69.40
18412;DHT22;27097;51.738;19.472;2023-08-07T02:54:21;23.50;69.00
18412;DHT22;27097;51.738;19.472;2023-08-07T02:56:48;23.50;69.40
18412;DHT22;27097;51.738;19.472;2023-08-07T02:59:15;23.50;69.30
18412;DHT22;27097;51.738;19.472;2023-08-07T03:01:42;23.50;69.50
18412;DHT22;27097;51.738;19.472;2023-08-07T03:04:11;23.50;68.90
18412;DHT22;27097;51.738;19.472;2023-08-07T03:06:37;23.50;69.20
18412;DHT22;27097;51.738;19.472;2023-08-07T03:09:04;23.50;69.90
18412;DHT22;27097;51.738;19.472;2023-08-07T03:11:31;23.50;69.00
18412;DHT22;27097;51.738;19.472;2023-08-07T03:13:58;23.50;68.90
18412;DHT22;27097;51.738;19.472;2023-08-07T03:16:24;23.50;68.90
18412;DHT22;27097;51.738;19.472;2023-08-07T03:18:51;23.50;69.00
18412;DHT22;27097;51.738;19.472;2023-08-07T03:21:19;23.50;69.00
18412;DHT22;27097;51.738;19.472;2023-08-07T03:23:46;23.50;69.20
18412;DHT22;27097;51.738;19.472;2023-08-07T03:26:13;23.50;69.10
18412;DHT22;27097;51.738;19.472;2023-08-07T03:28:40;23.50;69.00
18412;DHT22;27097;51.738;19.472;2023-08-07T03:31:07;23.50;69.00
18412;DHT22;27097;51.738;19.472;2023-08-07T03:33:34;23.50;68.90
18412;DHT22;27097;51.738;19.472;2023-08-07T03:36:00;23.50;69.00
18412;DHT22;27097;51.738;19.472;2023-08-07T03:38:29;23.50;68.90
18412;DHT22;27097;51.738;19.472;2023-08-07T03:40:55;23.50;68.90
18412;DHT22;27097;51.738;19.472;2023-08-07T03:43:23;23.50;69.60
18412;DHT22;27097;51.738;19.472;2023-08-07T03:45:54;23.50;68.90
18412;DHT22;27097;51.738;19.472;2023-08-07T03:48:22;23.60;68.70
18412;DHT22;27097;51.738;19.472;2023-08-07T03:50:48;23.50;69.00
18412;DHT22;27097;51.738;19.472;2023-08-07T03:53:15;23.50;68.80
18412;DHT22;27097;51.738;19.472;2023-08-07T03:55:49;23.50;68.30
18412;DHT22;27097;51.738;19.472;2023-08-07T03:58:16;23.50;68.20
18412;DHT22;27097;51.738;19.472;2023-08-07T04:00:43;23.50;69.00
18412;DHT22;27097;51.738;19.472;2023-08-07T04:03:10;23.50;69.20
18412;DHT22;27097;51.738;19.472;2023-08-07T04:05:36;23.50;69.10
18412;DHT22;27097;51.738;19.472;2023-08-07T04:08:03;23.60;69.30
18412;DHT22;27097;51.738;19.472;2023-08-07T04:10:30;23.60;69.40
18412;DHT22;27097;51.738;19.472;2023-08-07T04:12:58;23.60;69.30
18412;DHT22;27097;51.738;19.472;2023-08-07T04:15:26;23.50;68.70
18412;DHT22;27097;51.738;19.472;2023-08-07T04:17:53;23.60;69.00
18412;DHT22;27097;51.738;19.472;2023-08-07T04:20:20;23.60;68.70
18412;DHT22;27097;51.738;19.472;2023-08-07T04:22:47;23.60;69.00
18412;DHT22;27097;51.738;19.472;2023-08-07T04:25:14;23.60;69.00
18412;DHT22;27097;51.738;19.472;2023-08-07T04:27:40;23.60;68.70
18412;DHT22;27097;51.738;19.472;2023-08-07T04:30:10;23.60;69.20
18412;DHT22;27097;51.738;19.472;2023-08-07T04:32:37;23.60;69.10
18412;DHT22;27097;51.738;19.472;2023-08-07T04:35:04;23.60;68.90
18412;DHT22;27097;51.738;19.472;2023-08-07T04:37:31;23.60;69.40
18412;DHT22;27097;51.738;19.472;2023-08-07T04:39:58;23.60;69.10
18412;DHT22;27097;51.738;19.472;2023-08-07T04:42:26;23.60;68.60
18412;DHT22;27097;51.738;19.472;2023-08-07T04:44:53;23.60;68.70
18412;DHT22;27097;51.738;19.472;2023-08-07T04:47:21;23.60;69.00
18412;DHT22;27097;51.738;19.472;2023-08-07T04:49:48;23.60;68.50
18412;DHT22;27097;51.738;19.472;2023-08-07T04:52:14;23.60;69.10
18412;DHT22;27097;51.738;19.472;2023-08-07T04:54:41;23.70;68.90
18412;DHT22;27097;51.738;19.472;2023-08-07T04:57:08;23.70;69.10
18412;DHT22;27097;51.738;19.472;2023-08-07T04:59:35;23.70;68.20
18412;DHT22;27097;51.738;19.472;2023-08-07T05:02:02;23.70;69.20
18412;DHT22;27097;51.738;19.472;2023-08-07T05:04:30;23.70;69.20
18412;DHT22;27097;51.738;19.472;2023-08-07T05:06:57;23.70;68.90
18412;DHT22;27097;51.738;19.472;2023-08-07T05:09:24;23.70;69.20
18412;DHT22;27097;51.738;19.472;2023-08-07T05:11:51;23.70;69.20
18412;DHT22;27097;51.738;19.472;2023-08-07T05:14:17;23.80;69.60
18412;DHT22;27097;51.738;19.472;2023-08-07T05:16:44;23.80;69.80
18412;DHT22;27097;51.738;19.472;2023-08-07T05:19:11;23.80;69.20
18412;DHT22;27097;51.738;19.472;2023-08-07T05:21:39;23.80;70.30
18412;DHT22;27097;51.738;19.472;2023-08-07T05:24:06;23.80;69.90
18412;DHT22;27097;51.738;19.472;2023-08-07T05:26:33;23.80;69.50
18412;DHT22;27097;51.738;19.472;2023-08-07T05:28:59;23.80;69.10
18412;DHT22;27097;51.738;19.472;2023-08-07T05:31:26;23.80;68.60
18412;DHT22;27097;51.738;19.472;2023-08-07T05:33:53;23.80;68.60
18412;DHT22;27097;51.738;19.472;2023-08-07T05:36:20;23.90;68.70
18412;DHT22;27097;51.738;19.472;2023-08-07T05:38:48;23.90;68.80
18412;DHT22;27097;51.738;19.472;2023-08-07T05:41:15;23.90;68.20
18412;DHT22;27097;51.738;19.472;2023-08-07T05:43:42;23.90;68.50
18412;DHT22;27097;51.738;19.472;2023-08-07T05:46:09;23.90;68.40
18412;DHT22;27097;51.738;19.472;2023-08-07T05:48:35;24.00;69.10
18412;DHT22;27097;51.738;19.472;2023-08-07T05:51:02;24.00;68.30
18412;DHT22;27097;51.738;19.472;2023-08-07T05:53:29;24.00;68.40
18412;DHT22;27097;51.738;19.472;2023-08-07T05:55:57;24.00;66.70
18412;DHT22;27097;51.738;19.472;2023-08-07T05:58:24;24.10;66.50
18412;DHT22;27097;51.738;19.472;2023-08-07T06:00:51;24.10;65.30
18412;DHT22;27097;51.738;19.472;2023-08-07T06:03:18;24.10;65.10
18412;DHT22;27097;51.738;19.472;2023-08-07T06:05:45;24.10;65.10
18412;DHT22;27097;51.738;19.472;2023-08-07T06:08:11;24.10;64.70
18412;DHT22;27097;51.738;19.472;2023-08-07T06:10:38;24.10;65.10
18412;DHT22;27097;51.738;19.472;2023-08-07T06:13:06;24.10;65.10
18412;DHT22;27097;51.738;19.472;2023-08-07T06:15:33;24.10;65.10
18412;DHT22;27097;51.738;19.472;2023-08-07T06:18:00;24.20;63.00
18412;DHT22;27097;51.738;19.472;2023-08-07T06:20:27;24.20;63.80
18412;DHT22;27097;51.738;19.472;2023-08-07T06:22:54;24.20;63.50
18412;DHT22;27097;51.738;19.472;2023-08-07T06:25:21;24.10;63.60
18412;DHT22;27097;51.738;19.472;2023-08-07T06:27:48;24.20;64.40
18412;DHT22;27097;51.738;19.472;2023-08-07T06:30:16;24.20;63.40
18412;DHT22;27097;51.738;19.472;2023-08-07T06:32:43;24.30;63.50
18412;DHT22;27097;51.738;19.472;2023-08-07T06:35:10;24.30;63.60
18412;DHT22;27097;51.738;19.472;2023-08-07T06:37:36;24.40;63.10
18412;DHT22;27097;51.738;19.472;2023-08-07T06:40:04;24.40;63.10
18412;DHT22;27097;51.738;19.472;2023-08-07T06:42:31;24.50;63.20
18412;DHT22;27097;51.738;19.472;2023-08-07T06:44:58;24.50;66.30
18412;DHT22;27097;51.738;19.472;2023-08-07T06:47:26;24.50;66.70
18412;DHT22;27097;51.738;19.472;2023-08-07T06:49:53;24.60;66.80
18412;DHT22;27097;51.738;19.472;2023-08-07T06:52:20;24.60;66.70
18412;DHT22;27097;51.738;19.472;2023-08-07T06:54:47;24.60;66.60
18412;DHT22;27097;51.738;19.472;2023-08-07T06:57:14;24.60;66.30
18412;DHT22;27097;51.738;19.472;2023-08-07T06:59:40;24.70;66.10
18412;DHT22;27097;51.738;19.472;2023-08-07T07:02:07;24.70;65.90
18412;DHT22;27097;51.738;19.472;2023-08-07T07:04:35;24.70;65.90
18412;DHT22;27097;51.738;19.472;2023-08-07T07:07:03;24.70;65.80
18412;DHT22;27097;51.738;19.472;2023-08-07T07:09:30;24.70;65.40
18412;DHT22;27097;51.738;19.472;2023-08-07T07:11:57;24.80;65.80
18412;DHT22;27097;51.738;19.472;2023-08-07T07:14:24;24.80;65.40
18412;DHT22;27097;51.738;19.472;2023-08-07T07:16:51;24.80;65.70
18412;DHT22;27097;51.738;19.472;2023-08-07T07:19:18;24.80;65.40
18412;DHT22;27097;51.738;19.472;2023-08-07T07:21:46;24.80;65.50
18412;DHT22;27097;51.738;19.472;2023-08-07T07:24:13;24.80;65.70
18412;DHT22;27097;51.738;19.472;2023-08-07T07:26:39;24.80;61.10
18412;DHT22;27097;51.738;19.472;2023-08-07T07:29:06;24.80;58.50
18412;DHT22;27097;51.738;19.472;2023-08-07T07:31:33;24.90;59.20
18412;DHT22;27097;51.738;19.472;2023-08-07T07:34:00;24.90;58.40
18412;DHT22;27097;51.738;19.472;2023-08-07T07:36:27;24.90;58.00
18412;DHT22;27097;51.738;19.472;2023-08-07T07:38:55;25.00;56.40
18412;DHT22;27097;51.738;19.472;2023-08-07T07:41:22;24.90;57.50
18412;DHT22;27097;51.738;19.472;2023-08-07T07:43:49;24.90;57.70
18412;DHT22;27097;51.738;19.472;2023-08-07T07:46:16;24.90;59.10
18412;DHT22;27097;51.738;19.472;2023-08-07T07:48:43;24.90;60.10
18412;DHT22;27097;51.738;19.472;2023-08-07T07:51:10;24.90;58.60
18412;DHT22;27097;51.738;19.472;2023-08-07T07:53:36;24.90;59.50
18412;DHT22;27097;51.738;19.472;2023-08-07T07:56:05;24.90;60.30
18412;DHT22;27097;51.738;19.472;2023-08-07T07:58:32;24.90;58.60
18412;DHT22;27097;51.738;19.472;2023-08-07T08:00:59;24.90;58.30
18412;DHT22;27097;51.738;19.472;2023-08-07T08:03:25;24.90;57.90
18412;DHT22;27097;51.738;19.472;2023-08-07T08:05:53;24.90;59.50
18412;DHT22;27097;51.738;19.472;2023-08-07T08:08:19;24.90;60.20
18412;DHT22;27097;51.738;19.472;2023-08-07T08:10:46;24.90;60.00
18412;DHT22;27097;51.738;19.472;2023-08-07T08:13:15;24.90;60.00
18412;DHT22;27097;51.738;19.472;2023-08-07T08:15:42;24.90;60.80
18412;DHT22;27097;51.738;19.472;2023-08-07T08:18:09;25.00;61.50
18412;DHT22;27097;51.738;19.472;2023-08-07T08:20:36;25.00;59.50
18412;DHT22;27097;51.738;19.472;2023-08-07T08:23:03;25.00;59.40
18412;DHT22;27097;51.738;19.472;2023-08-07T08:25:30;25.00;59.00
18412;DHT22;27097;51.738;19.472;2023-08-07T08:27:58;25.10;59.60
18412;DHT22;27097;51.738;19.472;2023-08-07T08:30:26;25.10;59.40
18412;DHT22;27097;51.738;19.472;2023-08-07T08:32:53;25.10;59.60
18412;DHT22;27097;51.738;19.472;2023-08-07T08:35:20;25.20;60.30
18412;DHT22;27097;51.738;19.472;2023-08-07T08:37:47;25.20;59.50
18412;DHT22;27097;51.738;19.472;2023-08-07T08:40:14;25.30;58.70
18412;DHT22;27097;51.738;19.472;2023-08-07T08:42:44;25.30;59.30
18412;DHT22;27097;51.738;19.472;2023-08-07T08:45:12;25.30;58.80
18412;DHT22;27097;51.738;19.472;2023-08-07T08:47:42;25.30;58.80
18412;DHT22;27097;51.738;19.472;2023-08-07T08:50:11;25.30;58.20
18412;DHT22;27097;51.738;19.472;2023-08-07T08:52:41;25.30;58.70
18412;DHT22;27097;51.738;19.472;2023-08-07T08:55:09;25.40;59.00
18412;DHT22;27097;51.738;19.472;2023-08-07T08:57:37;25.40;59.70
18412;DHT22;27097;51.738;19.472;2023-08-07T09:00:05;25.40;59.20
18412;DHT22;27097;51.738;19.472;2023-08-07T09:02:45;25.40;59.20
18412;DHT22;27097;51.738;19.472;2023-08-07T09:05:13;25.50;59.10
18412;DHT22;27097;51.738;19.472;2023-08-07T09:07:40;25.50;59.20
18412;DHT22;27097;51.738;19.472;2023-08-07T09:10:08;25.50;59.70
18412;DHT22;27097;51.738;19.472;2023-08-07T09:12:39;25.50;60.60
18412;DHT22;27097;51.738;19.472;2023-08-07T09:15:08;25.50;60.60
18412;DHT22;27097;51.738;19.472;2023-08-07T09:17:39;25.50;59.40
18412;DHT22;27097;51.738;19.472;2023-08-07T09:20:09;25.50;58.00
18412;DHT22;27097;51.738;19.472;2023-08-07T09:22:39;25.50;57.40
18412;DHT22;27097;51.738;19.472;2023-08-07T09:25:07;25.50;57.20
18412;DHT22;27097;51.738;19.472;2023-08-07T09:27:35;25.50;57.20
18412;DHT22;27097;51.738;19.472;2023-08-07T09:30:06;25.50;58.40
18412;DHT22;27097;51.738;19.472;2023-08-07T09:32:35;25.50;58.10
18412;DHT22;27097;51.738;19.472;2023-08-07T09:35:03;25.50;58.20
18412;DHT22;27097;51.738;19.472;2023-08-07T09:37:32;25.50;58.70
18412;DHT22;27097;51.738;19.472;2023-08-07T09:40:00;25.50;58.10
18412;DHT22;27097;51.738;19.472;2023-08-07T09:42:30;25.50;60.20
18412;DHT22;27097;51.738;19.472;2023-08-07T09:44:58;25.50;59.40
18412;DHT22;27097;51.738;19.472;2023-08-07T09:47:25;25.50;58.20
18412;DHT22;27097;51.738;19.472;2023-08-07T09:49:54;25.60;57.30
18412;DHT22;27097;51.738;19.472;2023-08-07T09:52:21;25.70;56.60
18412;DHT22;27097;51.738;19.472;2023-08-07T09:54:49;25.80;57.50
18412;DHT22;27097;51.738;19.472;2023-08-07T09:57:16;25.80;58.10
18412;DHT22;27097;51.738;19.472;2023-08-07T09:59:44;25.80;58.40
18412;DHT22;27097;51.738;19.472;2023-08-07T10:02:16;25.80;58.30
18412;DHT22;27097;51.738;19.472;2023-08-07T10:04:43;25.80;57.60
18412;DHT22;27097;51.738;19.472;2023-08-07T10:07:10;25.80;57.80
18412;DHT22;27097;51.738;19.472;2023-08-07T10:09:39;25.90;56.90
18412;DHT22;27097;51.738;19.472;2023-08-07T10:12:09;26.00;57.40
18412;DHT22;27097;51.738;19.472;2023-08-07T10:14:36;26.10;57.90
18412;DHT22;27097;51.738;19.472;2023-08-07T10:17:04;26.30;57.90
18412;DHT22;27097;51.738;19.472;2023-08-07T10:19:31;26.20;57.50
18412;DHT22;27097;51.738;19.472;2023-08-07T10:21:58;26.20;57.50
18412;DHT22;27097;51.738;19.472;2023-08-07T10:24:26;26.20;57.30
18412;DHT22;27097;51.738;19.472;2023-08-07T10:26:54;26.10;57.10
18412;DHT22;27097;51.738;19.472;2023-08-07T10:29:24;26.10;56.10
18412;DHT22;27097;51.738;19.472;2023-08-07T10:31:53;26.00;55.90
18412;DHT22;27097;51.738;19.472;2023-08-07T10:34:21;26.00;55.30
18412;DHT22;27097;51.738;19.472;2023-08-07T10:36:48;25.90;56.10
18412;DHT22;27097;51.738;19.472;2023-08-07T10:39:16;26.00;56.70
18412;DHT22;27097;51.738;19.472;2023-08-07T10:41:45;26.00;56.70
18412;DHT22;27097;51.738;19.472;2023-08-07T10:44:19;25.90;57.00
18412;DHT22;27097;51.738;19.472;2023-08-07T10:46:52;26.20;55.00
18412;DHT22;27097;51.738;19.472;2023-08-07T10:49:36;26.50;55.60
18412;DHT22;27097;51.738;19.472;2023-08-07T10:52:07;26.70;55.50
18412;DHT22;27097;51.738;19.472;2023-08-07T10:54:37;26.80;55.00
18412;DHT22;27097;51.738;19.472;2023-08-07T10:57:10;26.90;55.40
18412;DHT22;27097;51.738;19.472;2023-08-07T10:59:38;27.10;55.30
18412;DHT22;27097;51.738;19.472;2023-08-07T11:02:11;27.20;54.50
18412;DHT22;27097;51.738;19.472;2023-08-07T11:04:39;27.30;54.30
18412;DHT22;27097;51.738;19.472;2023-08-07T11:07:06;27.40;53.40
18412;DHT22;27097;51.738;19.472;2023-08-07T11:09:33;27.40;53.50
18412;DHT22;27097;51.738;19.472;2023-08-07T11:12:01;27.40;53.10
18412;DHT22;27097;51.738;19.472;2023-08-07T11:14:28;27.50;53.20
18412;DHT22;27097;51.738;19.472;2023-08-07T11:16:55;27.60;53.00
18412;DHT22;27097;51.738;19.472;2023-08-07T11:19:23;27.60;52.70
18412;DHT22;27097;51.738;19.472;2023-08-07T11:21:51;27.60;52.50
18412;DHT22;27097;51.738;19.472;2023-08-07T11:24:19;27.60;52.70
18412;DHT22;27097;51.738;19.472;2023-08-07T11:26:47;27.60;52.60
18412;DHT22;27097;51.738;19.472;2023-08-07T11:29:16;27.40;52.90
18412;DHT22;27097;51.738;19.472;2023-08-07T11:31:43;27.20;53.00
18412;DHT22;27097;51.738;19.472;2023-08-07T11:34:10;27.00;53.50
18412;DHT22;27097;51.738;19.472;2023-08-07T11:36:41;26.80;53.20
18412;DHT22;27097;51.738;19.472;2023-08-07T11:39:08;26.70;52.70
18412;DHT22;27097;51.738;19.472;2023-08-07T11:41:35;26.70;53.00
18412;DHT22;27097;51.738;19.472;2023-08-07T11:44:02;26.60;53.00
18412;DHT22;27097;51.738;19.472;2023-08-07T11:46:29;26.60;53.00
18412;DHT22;27097;51.738;19.472;2023-08-07T11:48:56;26.50;52.90
18412;DHT22;27097;51.738;19.472;2023-08-07T11:51:23;26.50;53.60
18412;DHT22;27097;51.738;19.472;2023-08-07T11:53:52;26.50;53.60
18412;DHT22;27097;51.738;19.472;2023-08-07T11:56:22;26.40;53.50
18412;DHT22;27097;51.738;19.472;2023-08-07T11:58:50;26.40;53.50
18412;DHT22;27097;51.738;19.472;2023-08-07T12:01:19;26.30;54.00
18412;DHT22;27097;51.738;19.472;2023-08-07T12:03:51;26.30;54.00
18412;DHT22;27097;51.738;19.472;2023-08-07T12:06:18;26.20;53.70
18412;DHT22;27097;51.738;19.472;2023-08-07T12:08:48;26.20;53.80
18412;DHT22;27097;51.738;19.472;2023-08-07T12:11:17;26.10;53.80
18412;DHT22;27097;51.738;19.472;2023-08-07T12:13:44;26.10;53.40
18412;DHT22;27097;51.738;19.472;2023-08-07T12:16:12;26.10;52.40
18412;DHT22;27097;51.738;19.472;2023-08-07T12:18:43;26.00;54.20
18412;DHT22;27097;51.738;19.472;2023-08-07T12:21:10;25.90;53.50
18412;DHT22;27097;51.738;19.472;2023-08-07T12:23:37;25.90;53.40
18412;DHT22;27097;51.738;19.472;2023-08-07T12:26:05;25.90;54.20
18412;DHT22;27097;51.738;19.472;2023-08-07T12:28:34;25.80;54.80
18412;DHT22;27097;51.738;19.472;2023-08-07T12:31:02;25.80;55.10
18412;DHT22;27097;51.738;19.472;2023-08-07T12:33:29;25.80;54.30
18412;DHT22;27097;51.738;19.472;2023-08-07T12:35:56;25.80;54.50
18412;DHT22;27097;51.738;19.472;2023-08-07T12:38:23;25.80;53.90
18412;DHT22;27097;51.738;19.472;2023-08-07T12:40:50;25.80;53.50
18412;DHT22;27097;51.738;19.472;2023-08-07T12:43:17;25.80;52.50
18412;DHT22;27097;51.738;19.472;2023-08-07T12:45:45;25.90;52.10
18412;DHT22;27097;51.738;19.472;2023-08-07T12:48:12;25.80;52.20
18412;DHT22;27097;51.738;19.472;2023-08-07T12:50:39;25.80;52.60
18412;DHT22;27097;51.738;19.472;2023-08-07T12:53:06;25.80;53.40
18412;DHT22;27097;51.738;19.472;2023-08-07T12:55:33;25.70;52.90
18412;DHT22;27097;51.738;19.472;2023-08-07T12:58:00;25.70;52.90
18412;DHT22;27097;51.738;19.472;2023-08-07T13:00:27;25.70;52.70
18412;DHT22;27097;51.738;19.472;2023-08-07T13:02:55;25.70;53.20
18412;DHT22;27097;51.738;19.472;2023-08-07T13:05:22;25.70;52.10
18412;DHT22;27097;51.738;19.472;2023-08-07T13:07:49;25.70;53.20
18412;DHT22;27097;51.738;19.472;2023-08-07T13:10:19;25.70;52.10
18412;DHT22;27097;51.738;19.472;2023-08-07T13:12:47;25.70;51.10
18412;DHT22;27097;51.738;19.472;2023-08-07T13:15:16;25.80;51.30
18412;DHT22;27097;51.738;19.472;2023-08-07T13:17:43;25.70;50.70
18412;DHT22;27097;51.738;19.472;2023-08-07T13:20:13;25.70;51.20
18412;DHT22;27097;51.738;19.472;2023-08-07T13:22:40;25.70;49.70
18412;DHT22;27097;51.738;19.472;2023-08-07T13:25:08;25.70;50.60
18412;DHT22;27097;51.738;19.472;2023-08-07T13:27:37;25.80;50.30
18412;DHT22;27097;51.738;19.472;2023-08-07T13:30:05;25.80;50.40
18412;DHT22;27097;51.738;19.472;2023-08-07T13:32:32;25.70;50.70
18412;DHT22;27097;51.738;19.472;2023-08-07T13:34:59;25.70;50.40
18412;DHT22;27097;51.738;19.472;2023-08-07T13:37:27;25.70;50.20
18412;DHT22;27097;51.738;19.472;2023-08-07T13:39:54;25.70;50.70
18412;DHT22;27097;51.738;19.472;2023-08-07T13:42:23;25.60;51.20
18412;DHT22;27097;51.738;19.472;2023-08-07T13:44:50;25.60;50.60
18412;DHT22;27097;51.738;19.472;2023-08-07T13:47:17;25.70;50.50
18412;DHT22;27097;51.738;19.472;2023-08-07T13:49:45;25.60;50.50
18412;DHT22;27097;51.738;19.472;2023-08-07T13:52:12;25.60;50.30
18412;DHT22;27097;51.738;19.472;2023-08-07T13:54:40;25.70;50.90
18412;DHT22;27097;51.738;19.472;2023-08-07T13:57:07;25.60;51.30
18412;DHT22;27097;51.738;19.472;2023-08-07T13:59:34;25.60;51.00
18412;DHT22;27097;51.738;19.472;2023-08-07T14:02:01;25.50;51.40
18412;DHT22;27097;51.738;19.472;2023-08-07T14:04:28;25.60;51.70
18412;DHT22;27097;51.738;19.472;2023-08-07T14:06:54;25.50;51.10
18412;DHT22;27097;51.738;19.472;2023-08-07T14:09:21;25.50;52.00
18412;DHT22;27097;51.738;19.472;2023-08-07T14:11:49;25.50;52.30
18412;DHT22;27097;51.738;19.472;2023-08-07T14:14:16;25.50;51.90
18412;DHT22;27097;51.738;19.472;2023-08-07T14:16:43;25.50;51.40
18412;DHT22;27097;51.738;19.472;2023-08-07T14:19:10;25.50;52.20
18412;DHT22;27097;51.738;19.472;2023-08-07T14:21:37;25.50;50.20
18412;DHT22;27097;51.738;19.472;2023-08-07T14:24:04;25.50;51.40
18412;DHT22;27097;51.738;19.472;2023-08-07T14:26:31;25.50;49.30
18412;DHT22;27097;51.738;19.472;2023-08-07T14:28:59;25.50;49.60
18412;DHT22;27097;51.738;19.472;2023-08-07T14:31:26;25.60;48.30
18412;DHT22;27097;51.738;19.472;2023-08-07T14:33:53;25.60;48.70
18412;DHT22;27097;51.738;19.472;2023-08-07T14:36:20;25.60;48.40
18412;DHT22;27097;51.738;19.472;2023-08-07T14:38:46;25.60;48.30
18412;DHT22;27097;51.738;19.472;2023-08-07T14:41:13;25.60;48.60
18412;DHT22;27097;51.738;19.472;2023-08-07T14:43:40;25.60;49.50
18412;DHT22;27097;51.738;19.472;2023-08-07T14:46:08;25.50;49.80
18412;DHT22;27097;51.738;19.472;2023-08-07T14:48:35;25.50;48.40
18412;DHT22;27097;51.738;19.472;2023-08-07T14:51:02;25.50;47.40
18412;DHT22;27097;51.738;19.472;2023-08-07T14:53:29;25.50;47.20
18412;DHT22;27097;51.738;19.472;2023-08-07T14:55:56;25.50;47.90
18412;DHT22;27097;51.738;19.472;2023-08-07T14:58:23;25.50;47.20
18412;DHT22;27097;51.738;19.472;2023-08-07T15:00:53;25.50;47.80
18412;DHT22;27097;51.738;19.472;2023-08-07T15:03:22;25.50;47.60
18412;DHT22;27097;51.738;19.472;2023-08-07T15:05:49;25.40;47.90
18412;DHT22;27097;51.738;19.472;2023-08-07T15:08:15;25.40;49.00
18412;DHT22;27097;51.738;19.472;2023-08-07T15:10:42;25.40;47.80
18412;DHT22;27097;51.738;19.472;2023-08-07T15:13:09;25.40;48.80
18412;DHT22;27097;51.738;19.472;2023-08-07T15:15:36;25.40;48.90
18412;DHT22;27097;51.738;19.472;2023-08-07T15:18:03;25.40;47.40